createdAt,value
2023-04-08T00:01:07.050Z,9.11
2023-04-08T00:03:12.061Z,9.14
2023-04-08T00:05:19.774Z,9.17
2023-04-08T00:07:24.667Z,9.18
2023-04-08T00:09:29.581Z,9.19
2023-04-08T00:11:34.928Z,9.16
2023-04-08T00:13:39.613Z,9.07
2023-04-08T00:15:44.693Z,9.00
2023-04-08T00:17:49.601Z,8.99
2023-04-08T00:19:55.547Z,8.96
2023-04-08T00:22:03.293Z,8.93
2023-04-08T00:24:09.015Z,8.93
2023-04-08T00:26:13.889Z,8.88
2023-04-08T00:28:19.979Z,8.90
2023-04-08T00:30:24.880Z,8.92
2023-04-08T00:32:30.568Z,8.93
2023-04-08T00:34:35.890Z,8.95
2023-04-08T00:36:40.913Z,8.95
2023-04-08T00:38:49.248Z,8.89
2023-04-08T00:40:54.412Z,8.86
2023-04-08T00:43:00.175Z,8.84
2023-04-08T00:45:05.050Z,8.79
2023-04-08T00:47:10.014Z,8.75
2023-04-08T00:49:14.978Z,8.71
2023-04-08T00:51:20.008Z,8.66
2023-04-08T00:53:25.765Z,8.61
2023-04-08T00:55:33.614Z,8.58
2023-04-08T00:57:39.392Z,8.49
2023-04-08T00:59:45.469Z,8.44
2023-04-08T01:01:57.935Z,8.42
2023-04-08T01:04:11.736Z,8.41
2023-04-08T01:06:22.310Z,8.39
2023-04-08T01:08:30.149Z,8.38
2023-04-08T01:10:43.389Z,8.30
2023-04-08T01:12:54.772Z,8.28
2023-04-08T01:15:05.769Z,8.29
2023-04-08T01:17:12.541Z,8.29
2023-04-08T01:19:25.839Z,8.32
2023-04-08T01:21:31.805Z,8.35
2023-04-08T01:23:44.000Z,8.39
2023-04-08T01:25:53.253Z,8.43
2023-04-08T01:27:59.460Z,8.44
2023-04-08T01:30:06.621Z,8.46
2023-04-08T01:32:12.516Z,8.49
2023-04-08T01:34:19.485Z,8.53
2023-04-08T01:36:25.975Z,8.57
2023-04-08T01:38:32.296Z,8.55
2023-04-08T01:40:38.429Z,8.46
2023-04-08T01:42:47.844Z,8.39
2023-04-08T01:44:55.173Z,8.29
2023-04-08T01:47:00.865Z,8.24
2023-04-08T01:49:06.604Z,8.22
2023-04-08T01:51:15.493Z,8.26
2023-04-08T01:53:20.761Z,8.27
2023-04-08T01:55:27.534Z,8.27
2023-04-08T01:57:36.730Z,8.28
2023-04-08T01:59:45.686Z,8.25
2023-04-08T02:01:53.324Z,8.25
2023-04-08T02:04:01.547Z,8.23
2023-04-08T02:06:06.625Z,8.21
2023-04-08T02:08:11.655Z,8.15
2023-04-08T02:10:16.675Z,8.14
2023-04-08T02:12:22.119Z,8.10
2023-04-08T02:14:27.293Z,7.97
2023-04-08T02:16:45.706Z,7.98
2023-04-08T02:19:01.317Z,7.94
2023-04-08T02:21:12.953Z,7.97
2023-04-08T02:23:22.331Z,7.97
2023-04-08T02:25:28.554Z,7.89
2023-04-08T02:27:37.732Z,8.01
2023-04-08T02:29:44.230Z,8.11
2023-04-08T02:31:54.195Z,8.18
2023-04-08T02:34:02.176Z,8.23
2023-04-08T02:36:09.970Z,8.30
2023-04-08T02:38:15.166Z,8.33
2023-04-08T02:40:29.316Z,8.35
2023-04-08T02:42:34.919Z,8.34
2023-04-08T02:44:39.866Z,8.38
2023-04-08T02:46:44.822Z,8.37
2023-04-08T02:48:52.753Z,8.37
2023-04-08T02:50:57.662Z,8.37
2023-04-08T02:53:02.565Z,8.37
2023-04-08T02:55:12.671Z,8.37
2023-04-08T02:57:17.729Z,8.19
2023-04-08T02:59:22.699Z,8.10
2023-04-08T03:01:27.863Z,8.14
2023-04-08T03:03:32.719Z,8.13
2023-04-08T03:05:40.284Z,8.16
2023-04-08T03:07:45.939Z,8.06
2023-04-08T03:09:50.839Z,8.10
2023-04-08T03:11:56.015Z,8.13
2023-04-08T03:14:01.120Z,8.10
2023-04-08T03:16:06.145Z,8.07
2023-04-08T03:18:11.062Z,8.11
2023-04-08T03:20:16.025Z,8.12
2023-04-08T03:22:24.561Z,8.15
2023-04-08T03:24:29.481Z,8.18
2023-04-08T03:26:34.428Z,8.21
2023-04-08T03:28:39.557Z,8.19
2023-04-08T03:30:44.340Z,8.15
2023-04-08T03:32:49.396Z,8.09
2023-04-08T03:34:54.400Z,8.07
2023-04-08T03:36:59.282Z,8.03
2023-04-08T03:39:06.910Z,8.03
2023-04-08T03:41:11.872Z,8.00
2023-04-08T03:43:16.951Z,7.94
2023-04-08T03:45:22.183Z,7.90
2023-04-08T03:47:26.869Z,7.87
2023-04-08T03:49:31.845Z,7.84
2023-04-08T03:51:36.709Z,7.81
2023-04-08T03:53:41.615Z,7.79
2023-04-08T03:55:49.183Z,7.81
2023-04-08T03:57:54.346Z,7.82
2023-04-08T03:59:59.394Z,7.82
2023-04-08T04:02:04.423Z,7.77
2023-04-08T04:04:09.774Z,7.75
2023-04-08T04:06:14.926Z,7.76
2023-04-08T04:08:19.900Z,7.76
2023-04-08T04:10:24.777Z,7.76
2023-04-08T04:12:32.715Z,7.69
2023-04-08T04:14:37.635Z,7.70
2023-04-08T04:16:42.683Z,7.72
2023-04-08T04:18:47.685Z,7.71
2023-04-08T04:20:52.706Z,7.63
2023-04-08T04:22:57.630Z,7.59
2023-04-08T04:25:02.570Z,7.54
2023-04-08T04:27:07.607Z,7.45
2023-04-08T04:29:15.071Z,7.38
2023-04-08T04:31:23.726Z,7.35
2023-04-08T04:33:28.819Z,7.29
2023-04-08T04:35:33.753Z,7.23
2023-04-08T04:37:38.752Z,7.11
2023-04-08T04:39:43.675Z,7.03
2023-04-08T04:41:49.464Z,7.00
2023-04-08T04:43:54.447Z,7.03
2023-04-08T04:46:04.002Z,7.09
2023-04-08T04:48:09.296Z,7.14
2023-04-08T04:50:14.196Z,7.16
2023-04-08T04:52:19.102Z,7.27
2023-04-08T04:54:23.993Z,7.44
2023-04-08T04:56:29.348Z,7.51
2023-04-08T04:58:34.244Z,7.57
2023-04-08T05:00:39.169Z,7.68
2023-04-08T05:02:46.819Z,7.76
2023-04-08T05:04:53.871Z,7.82
2023-04-08T05:06:58.910Z,7.87
2023-04-08T05:09:03.856Z,7.89
2023-04-08T05:11:12.795Z,7.92
2023-04-08T05:13:17.783Z,7.95
2023-04-08T05:15:23.088Z,7.98
2023-04-08T05:17:28.113Z,8.02
2023-04-08T05:19:35.718Z,8.00
2023-04-08T05:21:40.664Z,8.04
2023-04-08T05:23:45.630Z,8.09
2023-04-08T05:25:50.620Z,8.01
2023-04-08T05:27:56.281Z,7.99
2023-04-08T05:30:01.254Z,8.02
2023-04-08T05:32:06.325Z,8.06
2023-04-08T05:34:11.450Z,8.05
2023-04-08T05:36:19.131Z,8.03
2023-04-08T05:38:23.972Z,8.03
2023-04-08T05:40:29.366Z,8.02
2023-04-08T05:42:35.088Z,8.02
2023-04-08T05:44:41.569Z,7.98
2023-04-08T05:46:46.552Z,7.91
2023-04-08T05:48:51.874Z,7.86
2023-04-08T05:50:57.277Z,7.92
2023-04-08T05:53:08.153Z,7.97
2023-04-08T05:55:13.286Z,7.92
2023-04-08T05:57:18.257Z,7.94
2023-04-08T05:59:23.140Z,7.91
2023-04-08T06:01:28.312Z,7.93
2023-04-08T06:03:34.084Z,7.81
2023-04-08T06:05:39.078Z,7.91
2023-04-08T06:07:44.131Z,7.97
2023-04-08T06:09:51.643Z,7.99
2023-04-08T06:11:57.656Z,8.01
2023-04-08T06:14:02.579Z,8.01
2023-04-08T06:16:14.267Z,8.03
2023-04-08T06:18:19.331Z,8.03
2023-04-08T06:20:24.466Z,7.87
2023-04-08T06:22:29.743Z,7.62
2023-04-08T06:24:35.174Z,7.67
2023-04-08T06:26:42.816Z,7.66
2023-04-08T06:28:47.818Z,7.75
2023-04-08T06:30:53.033Z,7.87
2023-04-08T06:32:57.743Z,7.88
2023-04-08T06:35:02.891Z,7.71
2023-04-08T06:37:10.806Z,7.55
2023-04-08T06:39:17.218Z,7.54
2023-04-08T06:41:22.150Z,7.40
2023-04-08T06:43:30.552Z,7.37
2023-04-08T06:45:35.824Z,7.16
2023-04-08T06:47:40.575Z,7.09
2023-04-08T06:49:46.790Z,7.01
2023-04-08T06:51:52.242Z,6.97
2023-04-08T06:53:57.593Z,6.92
2023-04-08T06:56:02.259Z,6.79
2023-04-08T06:58:07.206Z,6.73
2023-04-08T07:00:15.839Z,6.71
2023-04-08T07:02:22.405Z,6.69
2023-04-08T07:04:27.575Z,6.86
2023-04-08T07:06:32.603Z,6.96
2023-04-08T07:08:37.693Z,7.09
2023-04-08T07:10:42.794Z,6.93
2023-04-08T07:12:47.677Z,7.08
2023-04-08T07:14:53.361Z,7.23
2023-04-08T07:17:00.943Z,7.10
2023-04-08T07:19:05.905Z,7.28
2023-04-08T07:21:10.926Z,7.39
2023-04-08T07:23:15.933Z,7.37
2023-04-08T07:25:21.219Z,7.39
2023-04-08T07:27:26.365Z,7.25
2023-04-08T07:29:31.789Z,7.21
2023-04-08T07:31:36.792Z,7.39
2023-04-08T07:33:44.429Z,7.39
2023-04-08T07:35:49.493Z,7.51
2023-04-08T07:37:55.252Z,7.60
2023-04-08T07:40:00.555Z,7.54
2023-04-08T07:42:05.539Z,7.40
2023-04-08T07:44:10.645Z,7.54
2023-04-08T07:46:15.776Z,7.62
2023-04-08T07:48:20.768Z,7.51
2023-04-08T07:50:28.255Z,7.51
2023-04-08T07:52:33.382Z,7.45
2023-04-08T07:54:38.212Z,7.30
2023-04-08T07:56:44.739Z,7.28
2023-04-08T07:58:52.880Z,7.36
2023-04-08T08:00:59.756Z,7.40
2023-04-08T08:03:04.943Z,7.49
2023-04-08T08:05:11.164Z,7.40
2023-04-08T08:07:18.753Z,7.37
2023-04-08T08:09:23.683Z,7.49
2023-04-08T08:11:30.016Z,7.49
2023-04-08T08:13:35.738Z,7.57
2023-04-08T08:15:40.774Z,7.36
2023-04-08T08:17:48.404Z,7.44
2023-04-08T08:19:53.527Z,7.55
2023-04-08T08:21:58.462Z,7.67
2023-04-08T08:24:06.656Z,7.76
2023-04-08T08:26:12.769Z,7.82
2023-04-08T08:28:18.140Z,7.86
2023-04-08T08:30:23.050Z,7.89
2023-04-08T08:32:28.014Z,7.97
2023-04-08T08:34:33.712Z,7.97
2023-04-08T08:36:38.723Z,8.01
2023-04-08T08:38:43.651Z,7.99
2023-04-08T08:40:57.862Z,8.02
2023-04-08T08:43:03.189Z,8.09
2023-04-08T08:45:08.508Z,7.98
2023-04-08T08:47:13.609Z,7.81
2023-04-08T08:49:19.148Z,7.81
2023-04-08T08:51:24.626Z,7.92
2023-04-08T08:53:35.734Z,7.83
2023-04-08T08:56:05.807Z,7.99
2023-04-08T08:58:10.377Z,8.20
2023-04-08T09:00:16.759Z,8.26
2023-04-08T09:02:30.164Z,8.23
2023-04-08T09:04:35.366Z,8.24
2023-04-08T09:06:40.560Z,8.10
2023-04-08T09:08:45.779Z,8.13
2023-04-08T09:10:50.696Z,8.28
2023-04-08T09:12:59.219Z,8.20
2023-04-08T09:15:11.888Z,8.42
2023-04-08T09:17:17.289Z,8.55
2023-04-08T09:19:22.781Z,8.46
2023-04-08T09:21:28.106Z,8.24
2023-04-08T09:23:42.708Z,8.04
2023-04-08T09:25:47.643Z,8.20
2023-04-08T09:27:53.206Z,8.18
2023-04-08T09:30:19.251Z,8.40
2023-04-08T09:32:24.309Z,8.50
2023-04-08T09:34:32.693Z,8.57
2023-04-08T09:36:37.604Z,8.44
2023-04-08T09:38:42.701Z,8.41
2023-04-08T09:40:48.246Z,8.47
2023-04-08T09:42:57.168Z,8.43
2023-04-08T09:45:04.642Z,8.45
2023-04-08T09:47:21.875Z,8.49
2023-04-08T09:49:31.502Z,8.54
2023-04-08T09:51:43.371Z,8.64
2023-04-08T09:53:51.622Z,8.68
2023-04-08T09:56:00.006Z,8.67
2023-04-08T09:58:10.426Z,8.70
2023-04-08T10:00:17.627Z,8.74
2023-04-08T10:02:40.007Z,8.74
2023-04-08T10:04:53.234Z,8.49
2023-04-08T10:07:04.976Z,8.49
2023-04-08T10:09:10.684Z,8.54
2023-04-08T10:11:17.560Z,8.50
2023-04-08T10:13:23.344Z,8.52
2023-04-08T10:15:29.796Z,8.49
2023-04-08T10:17:37.409Z,8.37
2023-04-08T10:19:44.808Z,8.48
2023-04-08T10:21:50.689Z,8.73
2023-04-08T10:24:01.769Z,8.96
2023-04-08T10:26:36.995Z,9.02
2023-04-08T10:28:41.908Z,8.96
2023-04-08T10:30:47.675Z,9.11
2023-04-08T10:32:56.709Z,9.19
2023-04-08T10:35:01.862Z,9.40
2023-04-08T10:37:06.870Z,9.61
2023-04-08T10:39:11.932Z,9.78
2023-04-08T10:41:21.823Z,9.88
2023-04-08T10:43:27.319Z,9.90
2023-04-08T10:45:32.278Z,9.90
2023-04-08T10:47:37.174Z,9.59
2023-04-08T10:49:44.655Z,9.52
2023-04-08T10:51:50.111Z,9.53
2023-04-08T10:53:55.244Z,9.64
2023-04-08T10:56:07.552Z,9.74
2023-04-08T10:58:14.113Z,9.65
2023-04-08T11:00:22.754Z,9.81
2023-04-08T11:02:35.914Z,9.90
2023-04-08T11:04:48.631Z,9.91
2023-04-08T11:06:53.861Z,9.97
2023-04-08T11:09:00.810Z,9.96
2023-04-08T11:11:09.395Z,9.86
2023-04-08T11:13:15.039Z,9.87
2023-04-08T11:15:20.655Z,9.96
2023-04-08T11:17:25.731Z,9.90
2023-04-08T11:19:31.737Z,9.87
2023-04-08T11:21:41.240Z,9.82
2023-04-08T11:23:46.603Z,9.88
2023-04-08T11:25:51.656Z,9.92
2023-04-08T11:27:57.141Z,9.98
2023-04-08T11:30:02.715Z,10.02
2023-04-08T11:32:09.133Z,10.00
2023-04-08T11:34:14.071Z,9.86
2023-04-08T11:36:21.918Z,9.88
2023-04-08T11:38:29.571Z,9.94
2023-04-08T11:40:34.508Z,9.90
2023-04-08T11:42:40.048Z,9.89
2023-04-08T11:44:45.071Z,10.02
2023-04-08T11:46:57.529Z,10.20
2023-04-08T11:49:03.758Z,10.25
2023-04-08T11:51:12.579Z,10.43
2023-04-08T11:53:22.286Z,10.48
2023-04-08T11:55:31.064Z,10.17
2023-04-08T11:57:36.589Z,10.12
2023-04-08T11:59:41.803Z,10.19
2023-04-08T12:01:46.798Z,10.38
2023-04-08T12:03:59.941Z,10.61
2023-04-08T12:06:05.595Z,10.55
2023-04-08T12:08:10.723Z,10.57
2023-04-08T12:10:16.152Z,10.27
2023-04-08T12:12:26.865Z,10.22
2023-04-08T12:14:32.346Z,10.21
2023-04-08T12:16:37.460Z,10.09
2023-04-08T12:18:42.768Z,10.06
2023-04-08T12:20:47.388Z,10.22
2023-04-08T12:22:52.468Z,10.20
2023-04-08T12:24:59.230Z,10.30
2023-04-08T12:27:05.270Z,10.32
2023-04-08T12:29:12.792Z,10.41
2023-04-08T12:31:20.193Z,10.48
2023-04-08T12:35:54.352Z,10.49
2023-04-08T12:37:59.366Z,10.69
2023-04-08T12:40:04.843Z,10.73
2023-04-08T12:42:09.822Z,10.90
2023-04-08T12:44:17.515Z,11.09
2023-04-08T12:46:22.931Z,11.08
2023-04-08T12:48:28.170Z,11.13
2023-04-08T12:50:32.844Z,11.05
2023-04-08T12:52:37.766Z,11.23
2023-04-08T12:54:42.819Z,11.40
2023-04-08T12:56:49.013Z,11.55
2023-04-08T12:58:53.908Z,11.66
2023-04-08T13:01:01.571Z,11.74
2023-04-08T13:03:09.109Z,11.75
2023-04-08T13:05:14.134Z,11.74
2023-04-08T13:07:19.082Z,11.72
2023-04-08T13:09:24.118Z,11.76
2023-04-08T13:11:29.142Z,11.64
2023-04-08T13:13:34.328Z,11.65
2023-04-08T13:15:38.982Z,11.65
2023-04-08T13:17:46.558Z,11.41
2023-04-08T13:19:52.719Z,11.23
2023-04-08T13:21:57.690Z,11.02
2023-04-08T13:24:02.640Z,10.94
2023-04-08T13:26:07.671Z,10.67
2023-04-08T13:28:12.663Z,10.59
2023-04-08T13:30:17.751Z,10.41
2023-04-08T13:32:22.755Z,10.35
2023-04-08T13:34:30.660Z,10.31
2023-04-08T13:36:35.600Z,10.33
2023-04-08T13:38:40.436Z,10.14
2023-04-08T13:40:46.638Z,10.18
2023-04-08T13:42:52.820Z,10.23
2023-04-08T13:44:57.452Z,10.16
2023-04-08T13:47:02.888Z,10.32
2023-04-08T13:49:07.853Z,10.41
2023-04-08T13:51:15.345Z,10.48
2023-04-08T13:53:20.351Z,10.64
2023-04-08T13:55:25.595Z,10.82
2023-04-08T13:57:30.881Z,10.87
2023-04-08T13:59:35.610Z,10.87
2023-04-08T14:01:40.870Z,11.02
2023-04-08T14:03:50.267Z,10.91
2023-04-08T14:05:55.252Z,11.03
2023-04-08T14:08:02.721Z,11.21
2023-04-08T14:10:08.918Z,11.23
2023-04-08T14:12:13.902Z,11.33
2023-04-08T14:14:18.835Z,11.38
2023-04-08T14:16:23.772Z,11.46
2023-04-08T14:18:29.459Z,11.36
2023-04-08T14:20:35.693Z,11.46
2023-04-08T14:22:40.695Z,11.59
2023-04-08T14:24:48.295Z,11.66
2023-04-08T14:26:53.244Z,11.52
2023-04-08T14:28:58.408Z,11.45
2023-04-08T14:31:05.003Z,11.39
2023-04-08T14:33:10.071Z,11.53
2023-04-08T14:35:15.052Z,11.74
2023-04-08T14:37:20.736Z,12.09
2023-04-08T14:39:25.690Z,12.42
2023-04-08T14:41:33.191Z,12.58
2023-04-08T14:43:38.189Z,12.62
2023-04-08T14:45:45.055Z,12.65
2023-04-08T14:47:50.174Z,12.75
2023-04-08T14:49:55.044Z,12.68
2023-04-08T14:52:00.003Z,12.64
2023-04-08T14:54:04.926Z,12.48
2023-04-08T14:56:11.541Z,12.59
2023-04-08T14:58:20.100Z,12.62
2023-04-08T15:00:25.019Z,12.63
2023-04-08T15:02:30.015Z,12.52
2023-04-08T15:04:35.138Z,12.37
2023-04-08T15:06:40.671Z,12.12
2023-04-08T15:08:46.018Z,11.87
2023-04-08T15:10:50.973Z,11.77
2023-04-08T15:12:56.039Z,11.69
2023-04-08T15:15:06.353Z,11.70
2023-04-08T15:17:11.645Z,11.63
2023-04-08T15:19:18.813Z,11.58
2023-04-08T15:21:23.820Z,11.56
2023-04-08T15:23:29.519Z,11.53
2023-04-08T15:25:37.383Z,11.61
2023-04-08T15:27:45.113Z,11.66
2023-04-08T15:29:50.584Z,11.61
2023-04-08T15:31:58.145Z,11.60
2023-04-08T15:34:03.770Z,11.49
2023-04-08T15:36:09.351Z,11.47
2023-04-08T15:38:14.356Z,11.43
2023-04-08T15:40:22.470Z,11.36
2023-04-08T15:42:27.926Z,11.36
2023-04-08T15:44:35.018Z,11.28
2023-04-08T15:46:40.004Z,11.26
2023-04-08T15:48:47.561Z,11.20
2023-04-08T15:50:52.606Z,11.12
2023-04-08T15:52:57.638Z,11.09
2023-04-08T15:55:02.809Z,11.03
2023-04-08T15:57:07.825Z,10.98
2023-04-08T15:59:12.771Z,10.98
2023-04-08T16:01:18.916Z,10.90
2023-04-08T16:03:24.061Z,10.88
2023-04-08T16:05:31.714Z,10.94
2023-04-08T16:07:37.610Z,10.96
2023-04-08T16:09:42.572Z,11.00
2023-04-08T16:11:47.634Z,10.98
2023-04-08T16:13:52.743Z,11.02
2023-04-08T16:15:58.423Z,11.05
2023-04-08T16:18:04.790Z,11.07
2023-04-08T16:20:10.896Z,11.11
2023-04-08T16:22:18.360Z,11.19
2023-04-08T16:24:23.270Z,11.19
2023-04-08T16:26:29.572Z,11.17
2023-04-08T16:28:34.570Z,11.09
2023-04-08T16:30:43.100Z,11.04
2023-04-08T16:32:48.854Z,10.92
2023-04-08T16:34:53.742Z,10.92
2023-04-08T16:36:58.758Z,10.79
2023-04-08T16:39:06.319Z,10.72
2023-04-08T16:41:11.269Z,10.85
2023-04-08T16:43:16.166Z,10.82
2023-04-08T16:45:21.430Z,10.85
2023-04-08T16:47:26.775Z,10.85
2023-04-08T16:49:31.739Z,10.74
2023-04-08T16:51:36.704Z,10.67
2023-04-08T16:53:41.704Z,10.73
2023-04-08T16:55:49.216Z,10.64
2023-04-08T16:57:54.856Z,10.58
2023-04-08T16:59:59.715Z,10.56
2023-04-08T17:02:04.767Z,10.63
2023-04-08T17:04:10.179Z,10.62
2023-04-08T17:06:17.485Z,10.55
2023-04-08T17:08:23.960Z,10.50
2023-04-08T17:10:29.259Z,10.42
2023-04-08T17:12:36.739Z,10.51
2023-04-08T17:14:41.627Z,10.56
2023-04-08T17:16:46.704Z,10.57
2023-04-08T17:18:53.008Z,10.61
2023-04-08T17:20:57.864Z,10.61
2023-04-08T17:23:06.385Z,10.57
2023-04-08T17:25:12.057Z,10.60
2023-04-08T17:27:17.010Z,10.63
2023-04-08T17:29:24.493Z,10.56
2023-04-08T17:31:29.597Z,10.53
2023-04-08T17:33:34.590Z,10.47
2023-04-08T17:35:46.391Z,10.44
2023-04-08T17:37:51.347Z,10.35
2023-04-08T17:39:56.288Z,10.31
2023-04-08T17:42:02.249Z,10.31
2023-04-08T17:44:07.588Z,10.23
2023-04-08T17:46:14.937Z,10.03
2023-04-08T17:48:20.226Z,10.09
2023-04-08T17:50:25.090Z,10.08
2023-04-08T17:52:30.062Z,10.03
2023-04-08T17:54:35.044Z,10.02
2023-04-08T17:56:40.096Z,10.00
2023-04-08T17:58:45.015Z,10.03
2023-04-08T18:00:50.364Z,9.96
2023-04-08T18:02:58.030Z,9.96
2023-04-08T18:05:04.103Z,10.00
2023-04-08T18:07:09.246Z,9.97
2023-04-08T18:09:14.142Z,9.93
2023-04-08T18:11:19.895Z,9.90
2023-04-08T18:13:24.772Z,9.89
2023-04-08T18:15:29.642Z,9.90
2023-04-08T18:17:34.508Z,9.89
2023-04-08T18:19:42.324Z,9.95
2023-04-08T18:21:48.831Z,9.81
2023-04-08T18:23:53.941Z,9.90
2023-04-08T18:25:59.076Z,9.89
2023-04-08T18:28:04.096Z,9.85
2023-04-08T18:30:11.825Z,9.85
2023-04-08T18:32:16.868Z,9.92
2023-04-08T18:34:23.104Z,9.96
2023-04-08T18:36:30.574Z,9.98
2023-04-08T18:38:36.350Z,9.93
2023-04-08T18:40:42.320Z,9.93
2023-04-08T18:42:47.255Z,9.90
2023-04-08T18:44:53.638Z,9.96
2023-04-08T18:46:59.087Z,9.97
2023-04-08T18:49:04.018Z,9.93
2023-04-08T18:51:08.907Z,9.98
2023-04-08T18:53:16.636Z,9.98
2023-04-08T18:55:22.205Z,9.89
2023-04-08T18:57:27.254Z,9.79
2023-04-08T18:59:35.435Z,9.85
2023-04-08T19:01:41.894Z,9.82
2023-04-08T19:03:47.011Z,9.79
2023-04-08T19:05:52.067Z,9.68
2023-04-08T19:07:57.868Z,9.69
2023-04-08T19:10:05.570Z,9.71
2023-04-08T19:12:10.477Z,9.69
2023-04-08T19:14:15.765Z,9.67
2023-04-08T19:16:20.751Z,9.71
2023-04-08T19:18:26.267Z,9.63
2023-04-08T19:20:31.203Z,9.72
2023-04-08T19:22:36.114Z,9.74
2023-04-08T19:24:41.186Z,9.75
2023-04-08T19:26:49.595Z,9.78
2023-04-08T19:28:54.694Z,9.75
2023-04-08T19:30:59.604Z,9.72
2023-04-08T19:33:04.612Z,9.77
2023-04-08T19:35:10.856Z,9.73
2023-04-08T19:37:15.827Z,9.69
2023-04-08T19:39:21.200Z,9.71
2023-04-08T19:41:26.461Z,9.71
2023-04-08T19:43:34.347Z,9.71
2023-04-08T19:45:39.326Z,9.77
2023-04-08T19:47:47.234Z,9.77
2023-04-08T19:49:52.757Z,9.79
2023-04-08T19:51:58.680Z,9.77
2023-04-08T19:54:03.569Z,9.71
2023-04-08T19:56:08.688Z,9.70
2023-04-08T19:58:13.606Z,9.70
2023-04-08T20:00:21.460Z,9.64
2023-04-08T20:02:26.819Z,9.55
2023-04-08T20:04:32.196Z,9.53
2023-04-08T20:06:37.621Z,9.56
2023-04-08T20:08:42.268Z,9.54
2023-04-08T20:10:49.283Z,9.55
2023-04-08T20:12:55.320Z,9.52
2023-04-08T20:15:00.208Z,9.53
2023-04-08T20:17:07.808Z,9.58
2023-04-08T20:19:13.213Z,9.57
2023-04-08T20:21:18.381Z,9.50
2023-04-08T20:23:24.400Z,9.53
2023-04-08T20:25:29.317Z,9.58
2023-04-08T20:27:35.902Z,9.60
2023-04-08T20:29:42.155Z,9.63
2023-04-08T20:31:49.921Z,9.60
2023-04-08T20:33:57.610Z,9.61
2023-04-08T20:36:02.590Z,9.59
2023-04-08T20:38:08.213Z,9.61
2023-04-08T20:40:18.104Z,9.56
2023-04-08T20:42:23.993Z,9.57
2023-04-08T20:44:29.518Z,9.57
2023-04-08T20:46:35.321Z,9.58
2023-04-08T20:48:40.903Z,9.60
2023-04-08T20:50:50.768Z,9.57
2023-04-08T20:52:55.773Z,9.50
2023-04-08T20:55:00.756Z,9.47
2023-04-08T20:57:05.701Z,9.46
2023-04-08T20:59:10.843Z,9.47
2023-04-08T21:01:16.064Z,9.40
2023-04-08T21:03:20.875Z,9.40
2023-04-08T21:05:25.832Z,9.37
2023-04-08T21:07:33.348Z,9.38
2023-04-08T21:09:38.283Z,9.40
2023-04-08T21:11:43.134Z,9.43
2023-04-08T21:13:49.039Z,9.43
2023-04-08T21:15:54.351Z,9.49
2023-04-08T21:17:59.326Z,9.52
2023-04-08T21:20:04.698Z,9.53
2023-04-08T21:22:09.675Z,9.48
2023-04-08T21:24:17.154Z,9.48
2023-04-08T21:26:22.116Z,9.49
2023-04-08T21:28:27.357Z,9.52
2023-04-08T21:30:31.986Z,9.48
2023-04-08T21:32:37.301Z,9.47
2023-04-08T21:34:42.057Z,9.43
2023-04-08T21:36:46.941Z,9.33
2023-04-08T21:38:52.071Z,9.32
2023-04-08T21:40:59.923Z,9.38
2023-04-08T21:43:04.811Z,9.38
2023-04-08T21:45:11.025Z,9.40
2023-04-08T21:47:16.049Z,9.38
2023-04-08T21:49:20.981Z,9.39
2023-04-08T21:51:26.589Z,9.35
2023-04-08T21:53:31.737Z,9.32
2023-04-08T21:55:36.616Z,9.32
2023-04-08T21:57:44.312Z,9.32
2023-04-08T21:59:49.303Z,9.33
2023-04-08T22:01:54.236Z,9.33
2023-04-08T22:03:59.845Z,9.34
2023-04-08T22:06:04.960Z,9.34
2023-04-08T22:08:09.933Z,9.33
2023-04-08T22:10:14.947Z,9.32
2023-04-08T22:12:19.937Z,9.33
2023-04-08T22:14:27.484Z,9.38
2023-04-08T22:16:32.561Z,9.43
2023-04-08T22:18:37.523Z,9.41
2023-04-08T22:20:42.378Z,9.38
2023-04-08T22:22:47.583Z,9.35
2023-04-08T22:24:52.711Z,9.33
2023-04-08T22:26:57.780Z,9.34
2023-04-08T22:29:02.674Z,9.33
2023-04-08T22:31:12.292Z,9.30
2023-04-08T22:33:17.349Z,9.30
2023-04-08T22:35:22.358Z,9.33
2023-04-08T22:37:27.408Z,9.23
2023-04-08T22:39:32.267Z,9.24
2023-04-08T22:41:37.133Z,9.24
2023-04-08T22:43:42.040Z,9.23
2023-04-08T22:45:46.984Z,9.23
2023-04-08T22:47:54.593Z,9.22
2023-04-08T22:49:59.503Z,9.25
2023-04-08T22:52:04.531Z,9.29
2023-04-08T22:54:09.439Z,9.25
2023-04-08T22:56:14.427Z,9.29
2023-04-08T22:58:19.338Z,9.31
2023-04-08T23:00:24.612Z,9.32
2023-04-08T23:02:29.433Z,9.29
2023-04-08T23:04:36.929Z,9.26
2023-04-08T23:06:41.827Z,9.27
2023-04-08T23:08:46.711Z,9.27
2023-04-08T23:10:51.608Z,9.27
2023-04-08T23:12:56.519Z,9.21
2023-04-08T23:15:01.438Z,9.16
2023-04-08T23:17:06.459Z,9.16
2023-04-08T23:19:11.647Z,9.11
2023-04-08T23:21:18.874Z,9.04
2023-04-08T23:23:24.890Z,9.03
2023-04-08T23:25:29.741Z,9.04
2023-04-08T23:27:34.661Z,9.07
2023-04-08T23:29:39.531Z,9.05
2023-04-08T23:31:44.409Z,9.06
2023-04-08T23:33:49.313Z,9.09
2023-04-08T23:35:54.186Z,9.07
2023-04-08T23:38:01.705Z,9.07
2023-04-08T23:40:07.296Z,9.05
2023-04-08T23:42:12.139Z,9.03
2023-04-08T23:44:17.008Z,9.05
2023-04-08T23:46:21.942Z,9.05
2023-04-08T23:48:27.008Z,9.07
2023-04-08T23:50:31.884Z,9.12
2023-04-08T23:52:37.547Z,9.15
2023-04-08T23:54:45.074Z,9.16
2023-04-08T23:56:49.983Z,9.17
2023-04-08T23:58:55.043Z,9.19
